createdAt,value
2018-01-02T00:00:22.769Z,2.87
2018-01-02T00:01:26.031Z,2.75
2018-01-02T00:02:28.544Z,3.08
2018-01-02T00:03:30.957Z,2.85
2018-01-02T00:04:34.189Z,2.78
2018-01-02T00:05:36.756Z,2.72
2018-01-02T00:06:39.197Z,2.67
2018-01-02T00:07:41.703Z,2.90
2018-01-02T00:08:44.153Z,2.55
2018-01-02T00:09:46.612Z,3.05
2018-01-02T00:10:49.109Z,2.60
2018-01-02T00:11:51.621Z,2.37
2018-01-02T00:12:54.072Z,2.70
2018-01-02T00:13:56.524Z,2.28
2018-01-02T00:14:59.757Z,2.40
2018-01-02T00:16:02.248Z,2.70
2018-01-02T00:17:04.709Z,2.85
2018-01-02T00:18:08.001Z,2.30
2018-01-02T00:19:10.425Z,2.62
2018-01-02T00:20:12.928Z,2.45
2018-01-02T00:21:16.156Z,2.75
2018-01-02T00:22:19.366Z,2.65
2018-01-02T00:23:21.856Z,2.30
2018-01-02T00:24:24.369Z,2.40
2018-01-02T00:25:26.891Z,2.92
2018-01-02T00:26:29.388Z,2.50
2018-01-02T00:27:31.957Z,2.85
2018-01-02T00:28:34.409Z,2.75
2018-01-02T00:29:36.920Z,2.62
2018-01-02T00:30:39.416Z,3.25
2018-01-02T00:31:41.908Z,2.70
2018-01-02T00:32:44.391Z,2.60
2018-01-02T00:33:46.855Z,2.40
2018-01-02T00:34:50.835Z,2.70
2018-01-02T00:35:54.060Z,2.80
2018-01-02T00:36:56.580Z,2.92
2018-01-02T00:38:00.092Z,2.65
2018-01-02T00:39:02.581Z,3.08
2018-01-02T00:40:05.851Z,2.85
2018-01-02T00:41:08.328Z,2.85
2018-01-02T00:42:10.839Z,2.92
2018-01-02T00:43:13.348Z,2.70
2018-01-02T00:44:15.783Z,2.80
2018-01-02T00:45:18.266Z,2.65
2018-01-02T00:46:20.824Z,3.00
2018-01-02T00:47:23.287Z,3.15
2018-01-02T00:48:26.453Z,2.50
2018-01-02T00:49:29.172Z,2.70
2018-01-02T00:50:32.445Z,3.15
2018-01-02T00:51:34.904Z,2.72
2018-01-02T00:52:37.362Z,3.00
2018-01-02T00:53:40.600Z,2.92
2018-01-02T00:54:43.832Z,2.85
2018-01-02T00:55:46.299Z,2.70
2018-01-02T00:56:49.369Z,2.47
2018-01-02T00:57:51.816Z,2.92
2018-01-02T00:58:54.281Z,2.60
2018-01-02T00:59:56.795Z,2.67
2018-01-02T01:01:00.322Z,2.50
2018-01-02T01:02:03.584Z,3.00
2018-01-02T01:03:06.066Z,2.90
2018-01-02T01:04:08.508Z,2.75
2018-01-02T01:05:11.733Z,3.05
2018-01-02T01:06:14.308Z,2.62
2018-01-02T01:07:16.800Z,2.62
2018-01-02T01:08:19.243Z,2.25
2018-01-02T01:09:22.462Z,2.37
2018-01-02T01:10:24.909Z,3.05
2018-01-02T01:11:28.165Z,2.70
2018-01-02T01:12:31.385Z,2.45
2018-01-02T01:13:34.646Z,2.85
2018-01-02T01:14:37.175Z,2.60
2018-01-02T01:15:39.689Z,2.50
2018-01-02T01:16:42.926Z,2.40
2018-01-02T01:17:46.145Z,2.58
2018-01-02T01:18:48.601Z,2.42
2018-01-02T01:19:51.846Z,2.75
2018-01-02T01:20:55.057Z,2.85
2018-01-02T01:21:57.616Z,2.97
2018-01-02T01:23:00.169Z,2.80
2018-01-02T01:24:02.673Z,2.45
2018-01-02T01:25:05.325Z,3.03
2018-01-02T01:26:07.778Z,3.40
2018-01-02T01:27:10.253Z,2.53
2018-01-02T01:28:13.493Z,2.60
2018-01-02T01:29:16.026Z,3.08
2018-01-02T01:30:18.607Z,2.90
2018-01-02T01:31:22.582Z,3.20
2018-01-02T01:32:25.865Z,3.17
2018-01-02T01:33:28.321Z,2.50
2018-01-02T01:34:30.782Z,2.95
2018-01-02T01:35:34.018Z,3.30
2018-01-02T01:36:37.328Z,2.70
2018-01-02T01:37:39.789Z,2.97
2018-01-02T01:38:43.026Z,2.83
2018-01-02T01:39:46.277Z,3.40
2018-01-02T01:40:49.508Z,2.58
2018-01-02T01:41:52.825Z,2.80
2018-01-02T01:42:55.313Z,2.72
2018-01-02T01:43:58.543Z,2.55
2018-01-02T01:45:01.756Z,2.70
2018-01-02T01:46:04.237Z,3.40
2018-01-02T01:47:06.794Z,2.80
2018-01-02T01:48:09.367Z,2.80
2018-01-02T01:49:11.895Z,2.55
2018-01-02T01:50:14.375Z,2.70
2018-01-02T01:51:16.889Z,2.85
2018-01-02T01:52:19.381Z,2.80
2018-01-02T01:53:21.847Z,2.83
2018-01-02T01:54:24.363Z,2.70
2018-01-02T01:55:26.856Z,2.75
2018-01-02T01:56:29.389Z,2.90
2018-01-02T01:57:31.887Z,3.10
2018-01-02T01:58:35.374Z,2.50
2018-01-02T01:59:37.862Z,2.40
2018-01-02T02:00:40.328Z,3.67
2018-01-02T02:01:42.817Z,2.95
2018-01-02T02:02:45.286Z,2.75
2018-01-02T02:03:47.773Z,2.97
2018-01-02T02:04:51.061Z,2.78
2018-01-02T02:05:53.549Z,2.40
2018-01-02T02:06:56.011Z,2.40
2018-01-02T02:07:58.467Z,2.33
2018-01-02T02:09:01.837Z,2.87
2018-01-02T02:10:04.318Z,2.75
2018-01-02T02:11:06.769Z,2.90
2018-01-02T02:12:10.021Z,2.72
2018-01-02T02:13:12.494Z,2.65
2018-01-02T02:14:15.771Z,3.03
2018-01-02T02:15:19.026Z,2.87
2018-01-02T02:16:21.477Z,3.10
2018-01-02T02:17:23.981Z,2.85
2018-01-02T02:18:26.426Z,2.47
2018-01-02T02:19:28.881Z,2.75
2018-01-02T02:20:31.374Z,2.83
2018-01-02T02:21:33.857Z,2.60
2018-01-02T02:22:37.102Z,2.90
2018-01-02T02:23:40.341Z,2.45
2018-01-02T02:24:43.565Z,3.28
2018-01-02T02:25:47.565Z,3.08
2018-01-02T02:26:50.098Z,3.25
2018-01-02T02:27:52.581Z,2.80
2018-01-02T02:28:55.032Z,3.15
2018-01-02T02:29:57.561Z,2.92
2018-01-02T02:31:00.050Z,3.15
2018-01-02T02:32:02.534Z,3.03
2018-01-02T02:33:06.895Z,2.70
2018-01-02T02:34:10.515Z,3.28
2018-01-02T02:35:14.125Z,2.83
2018-01-02T02:36:17.813Z,3.20
2018-01-02T02:37:21.436Z,3.40
2018-01-02T02:38:25.070Z,3.08
2018-01-02T02:39:29.461Z,2.80
2018-01-02T02:40:44.328Z,2.42
2018-01-02T02:41:48.744Z,2.58
2018-01-02T02:42:52.337Z,3.03
2018-01-02T02:43:55.979Z,2.72
2018-01-02T02:44:59.604Z,3.12
2018-01-02T02:46:03.307Z,2.58
2018-01-02T02:47:07.718Z,3.67
2018-01-02T02:48:11.316Z,2.80
2018-01-02T02:49:14.936Z,3.05
2018-01-02T02:50:18.533Z,3.30
2018-01-02T02:51:22.918Z,2.30
2018-01-02T02:52:26.536Z,2.90
2018-01-02T02:53:30.917Z,2.70
2018-01-02T02:54:34.984Z,2.70
2018-01-02T02:55:39.349Z,3.50
2018-01-02T02:56:43.734Z,2.62
2018-01-02T02:57:47.357Z,2.97
2018-01-02T02:58:51.044Z,2.70
2018-01-02T02:59:54.680Z,3.00
2018-01-02T03:00:58.285Z,2.60
2018-01-02T03:02:01.571Z,2.53
2018-01-02T03:03:05.968Z,2.72
2018-01-02T03:04:09.573Z,2.80
2018-01-02T03:05:13.281Z,2.80
2018-01-02T03:06:16.541Z,3.17
2018-01-02T03:07:20.141Z,2.95
2018-01-02T03:08:23.829Z,2.87
2018-01-02T03:09:27.429Z,2.80
2018-01-02T03:10:31.847Z,2.58
2018-01-02T03:11:35.488Z,2.85
2018-01-02T03:12:39.085Z,2.70
2018-01-02T03:13:42.745Z,2.80
2018-01-02T03:14:46.397Z,3.15
2018-01-02T03:15:50.003Z,2.53
2018-01-02T03:16:53.599Z,3.33
2018-01-02T03:17:57.975Z,3.15
2018-01-02T03:19:02.039Z,2.50
2018-01-02T03:20:06.401Z,2.40
2018-01-02T03:21:10.454Z,3.17
2018-01-02T03:22:14.809Z,3.33
2018-01-02T03:23:18.445Z,2.80
2018-01-02T03:24:22.043Z,3.10
2018-01-02T03:25:26.464Z,3.15
2018-01-02T03:26:30.106Z,3.75
2018-01-02T03:27:33.705Z,3.08
2018-01-02T03:28:38.095Z,3.42
2018-01-02T03:29:41.704Z,3.20
2018-01-02T03:30:46.804Z,3.92
2018-01-02T03:31:51.286Z,3.35
2018-01-02T03:32:55.656Z,3.33
2018-01-02T03:34:00.035Z,3.42
2018-01-02T03:35:03.292Z,3.30
2018-01-02T03:36:06.993Z,3.40
2018-01-02T03:37:10.611Z,3.87
2018-01-02T03:38:14.220Z,3.83
2018-01-02T03:39:18.602Z,3.47
2018-01-02T03:40:21.905Z,4.03
2018-01-02T03:41:25.226Z,3.58
2018-01-02T03:42:28.837Z,3.70
2018-01-02T03:43:32.425Z,3.75
2018-01-02T03:44:36.058Z,3.70
2018-01-02T03:45:39.658Z,3.85
2018-01-02T03:46:43.250Z,3.53
2018-01-02T03:47:46.522Z,3.58
2018-01-02T03:48:50.124Z,3.35
2018-01-02T03:49:53.753Z,3.75
2018-01-02T03:50:57.379Z,3.70
2018-01-02T03:52:01.734Z,3.20
2018-01-02T03:53:05.324Z,3.22
2018-01-02T03:54:08.913Z,3.45
2018-01-02T03:55:12.535Z,3.20
2018-01-02T03:56:16.932Z,3.15
2018-01-02T03:57:20.514Z,3.62
2018-01-02T03:58:24.136Z,3.70
2018-01-02T03:59:27.743Z,3.62
2018-01-02T04:00:31.390Z,3.40
2018-01-02T04:01:36.488Z,3.33
2018-01-02T04:02:40.888Z,3.17
2018-01-02T04:03:44.497Z,3.70
2018-01-02T04:04:48.097Z,3.70
2018-01-02T04:05:51.696Z,3.28
2018-01-02T04:06:55.001Z,3.50
2018-01-02T04:07:58.641Z,3.05
2018-01-02T04:09:02.236Z,3.53
2018-01-02T04:10:05.828Z,4.00
2018-01-02T04:11:09.421Z,3.50
2018-01-02T04:12:13.774Z,3.53
2018-01-02T04:13:17.393Z,3.40
2018-01-02T04:14:21.748Z,4.28
2018-01-02T04:15:26.112Z,3.30
2018-01-02T04:16:30.473Z,3.35
2018-01-02T04:17:34.083Z,3.03
2018-01-02T04:18:37.114Z,2.90
2018-01-02T04:19:40.709Z,3.10
2018-01-02T04:20:45.077Z,3.70
2018-01-02T04:21:49.471Z,3.12
2018-01-02T04:22:53.067Z,2.92
2018-01-02T04:23:56.665Z,3.47
2018-01-02T04:25:01.018Z,3.70
2018-01-02T04:26:05.401Z,3.35
2018-01-02T04:27:08.661Z,3.20
2018-01-02T04:28:12.250Z,2.92
2018-01-02T04:29:15.872Z,3.58
2018-01-02T04:30:19.484Z,3.70
2018-01-02T04:31:23.861Z,3.10
2018-01-02T04:32:27.886Z,3.47
2018-01-02T04:33:31.508Z,3.70
2018-01-02T04:34:35.100Z,3.33
2018-01-02T04:35:38.715Z,3.25
2018-01-02T04:36:42.315Z,3.35
2018-01-02T04:37:46.665Z,3.40
2018-01-02T04:38:51.308Z,3.60
2018-01-02T04:39:54.896Z,3.60
2018-01-02T04:40:58.489Z,3.58
2018-01-02T04:42:02.081Z,3.10
2018-01-02T04:43:05.362Z,3.75
2018-01-02T04:44:09.004Z,3.58
2018-01-02T04:45:13.368Z,3.62
2018-01-02T04:46:17.837Z,3.37
2018-01-02T04:47:22.209Z,4.62
2018-01-02T04:48:26.594Z,4.22
2018-01-02T04:49:30.196Z,4.12
2018-01-02T04:50:33.856Z,3.85
2018-01-02T04:51:37.555Z,4.05
2018-01-02T04:52:41.965Z,3.78
2018-01-02T04:53:45.589Z,3.58
2018-01-02T04:54:49.208Z,4.00
2018-01-02T04:55:52.473Z,4.00
2018-01-02T04:56:56.132Z,5.05
2018-01-02T04:57:59.729Z,4.40
2018-01-02T04:59:03.324Z,4.47
2018-01-02T05:00:06.912Z,4.37
2018-01-02T05:01:10.627Z,4.68
2018-01-02T05:02:13.921Z,4.62
2018-01-02T05:03:17.545Z,4.07
2018-01-02T05:04:21.153Z,4.55
2018-01-02T05:05:25.512Z,4.00
2018-01-02T05:06:29.864Z,4.40
2018-01-02T05:07:33.483Z,4.85
2018-01-02T05:08:37.074Z,4.62
2018-01-02T05:09:41.464Z,4.20
2018-01-02T05:10:45.818Z,4.45
2018-01-02T05:11:50.181Z,4.15
2018-01-02T05:12:54.537Z,4.47
2018-01-02T05:13:58.893Z,4.90
2018-01-02T05:15:02.513Z,4.28
2018-01-02T05:16:06.112Z,4.80
2018-01-02T05:17:09.701Z,4.15
2018-01-02T05:18:13.305Z,4.30
2018-01-02T05:19:16.941Z,4.20
2018-01-02T05:20:20.228Z,4.70
2018-01-02T05:21:24.621Z,4.18
2018-01-02T05:22:28.213Z,4.85
2018-01-02T05:23:31.821Z,4.78
2018-01-02T05:24:35.469Z,4.87
2018-01-02T05:25:39.081Z,5.18
2018-01-02T05:26:43.441Z,4.90
2018-01-02T05:27:47.041Z,5.00
2018-01-02T05:28:50.449Z,4.55
2018-01-02T05:29:54.832Z,4.78
2018-01-02T05:30:58.434Z,4.35
2018-01-02T05:32:02.045Z,4.90
2018-01-02T05:33:05.628Z,4.90
2018-01-02T05:34:09.221Z,4.95
2018-01-02T05:35:13.590Z,4.45
2018-01-02T05:36:17.687Z,4.40
2018-01-02T05:37:21.505Z,4.60
2018-01-02T05:38:25.857Z,4.43
2018-01-02T05:39:29.467Z,3.92
2018-01-02T05:40:33.098Z,3.92
2018-01-02T05:41:36.695Z,4.20
2018-01-02T05:42:40.302Z,4.53
2018-01-02T05:43:43.899Z,4.45
2018-01-02T05:44:47.500Z,4.55
2018-01-02T05:45:51.105Z,4.78
2018-01-02T05:46:54.704Z,4.53
2018-01-02T05:47:58.359Z,5.12
2018-01-02T05:49:01.933Z,4.75
2018-01-02T05:50:05.527Z,5.12
2018-01-02T05:51:09.565Z,4.35
2018-01-02T05:52:13.165Z,4.80
2018-01-02T05:53:16.799Z,5.10
2018-01-02T05:54:21.155Z,4.85
2018-01-02T05:55:25.522Z,4.53
2018-01-02T05:56:29.897Z,4.30
2018-01-02T05:57:33.931Z,5.25
2018-01-02T05:58:37.634Z,4.90
2018-01-02T05:59:41.254Z,4.72
2018-01-02T06:00:44.853Z,4.72
2018-01-02T06:01:48.458Z,5.30
2018-01-02T06:02:52.854Z,4.60
2018-01-02T06:03:56.597Z,5.20
2018-01-02T06:05:00.189Z,5.10
2018-01-02T06:06:03.777Z,4.85
2018-01-02T06:07:08.176Z,5.22
2018-01-02T06:08:11.813Z,4.97
2018-01-02T06:09:15.481Z,5.50
2018-01-02T06:10:19.088Z,5.43
2018-01-02T06:11:22.700Z,5.12
2018-01-02T06:12:26.293Z,5.28
2018-01-02T06:13:29.592Z,5.85
2018-01-02T06:14:33.180Z,5.12
2018-01-02T06:15:36.833Z,6.00
2018-01-02T06:16:40.099Z,6.00
2018-01-02T06:17:44.139Z,5.95
2018-01-02T06:18:47.429Z,6.35
2018-01-02T06:19:51.033Z,6.22
2018-01-02T06:20:54.666Z,6.68
2018-01-02T06:21:58.405Z,6.87
2018-01-02T06:23:01.663Z,6.00
2018-01-02T06:24:05.280Z,6.95
2018-01-02T06:25:08.876Z,6.62
2018-01-02T06:26:12.594Z,6.90
2018-01-02T06:27:15.873Z,7.40
2018-01-02T06:28:19.481Z,6.97
2018-01-02T06:29:23.105Z,7.15
2018-01-02T06:30:27.253Z,7.75
2018-01-02T06:31:31.658Z,8.40
2018-01-02T06:32:35.285Z,7.72
2018-01-02T06:33:39.333Z,8.23
2018-01-02T06:34:42.906Z,7.85
2018-01-02T06:35:46.520Z,7.93
2018-01-02T06:36:50.121Z,8.15
2018-01-02T06:37:53.758Z,7.97
2018-01-02T06:38:58.133Z,8.25
2018-01-02T06:40:01.756Z,8.18
2018-01-02T06:41:05.045Z,8.75
2018-01-02T06:42:08.633Z,8.35
2018-01-02T06:43:12.244Z,8.43
2018-01-02T06:44:16.002Z,8.15
2018-01-02T06:45:19.620Z,7.65
2018-01-02T06:46:23.978Z,8.43
2018-01-02T06:47:28.023Z,8.43
2018-01-02T06:48:31.288Z,7.65
2018-01-02T06:49:35.688Z,8.68
2018-01-02T06:50:39.289Z,8.80
2018-01-02T06:51:42.899Z,9.45
2018-01-02T06:52:46.513Z,9.40
2018-01-02T06:53:50.882Z,8.45
2018-01-02T06:54:54.483Z,9.15
2018-01-02T06:55:58.085Z,9.18
2018-01-02T06:57:01.677Z,9.15
2018-01-02T06:58:05.337Z,9.13
2018-01-02T06:59:08.946Z,10.25
2018-01-02T07:00:12.524Z,9.73
2018-01-02T07:01:16.157Z,10.23
2018-01-02T07:02:19.774Z,10.63
2018-01-02T07:03:24.162Z,10.48
2018-01-02T07:04:27.438Z,10.85
2018-01-02T07:05:31.033Z,10.13
2018-01-02T07:06:35.430Z,10.25
2018-01-02T07:07:39.042Z,10.85
2018-01-02T07:08:42.683Z,11.07
2018-01-02T07:09:46.292Z,10.55
2018-01-02T07:10:49.884Z,10.82
2018-01-02T07:11:53.502Z,11.23
2018-01-02T07:12:57.138Z,10.13
2018-01-02T07:14:00.758Z,10.90
2018-01-02T07:15:04.449Z,11.00
2018-01-02T07:16:08.111Z,11.40
2018-01-02T07:17:11.427Z,12.25
2018-01-02T07:18:15.034Z,11.20
2018-01-02T07:19:18.636Z,12.20
2018-01-02T07:20:22.260Z,11.50
2018-01-02T07:21:26.329Z,12.18
2018-01-02T07:22:30.689Z,12.05
2018-01-02T07:23:35.069Z,12.10
2018-01-02T07:24:38.744Z,11.98
2018-01-02T07:25:42.561Z,11.73
2018-01-02T07:26:46.944Z,12.20
2018-01-02T07:27:51.305Z,12.37
2018-01-02T07:28:54.909Z,12.23
2018-01-02T07:29:58.533Z,13.05
2018-01-02T07:31:02.950Z,13.38
2018-01-02T07:32:06.571Z,13.55
2018-01-02T07:33:09.858Z,12.73
2018-01-02T07:34:14.422Z,13.10
2018-01-02T07:35:18.832Z,13.18
2018-01-02T07:36:22.585Z,11.98
2018-01-02T07:37:26.193Z,9.82
2018-01-02T07:38:29.593Z,9.55
2018-01-02T07:39:32.877Z,10.82
2018-01-02T07:40:36.537Z,10.00
2018-01-02T07:41:40.887Z,8.32
2018-01-02T07:42:44.153Z,8.50
2018-01-02T07:43:47.843Z,7.80
2018-01-02T07:44:51.459Z,7.95
2018-01-02T07:45:55.836Z,8.00
2018-01-02T07:47:00.193Z,6.53
2018-01-02T07:48:04.590Z,6.35
2018-01-02T07:49:08.194Z,6.20
2018-01-02T07:50:11.833Z,6.22
2018-01-02T07:51:15.445Z,6.30
2018-01-02T07:52:19.042Z,6.60
2018-01-02T07:53:22.754Z,6.97
2018-01-02T07:54:26.353Z,6.22
2018-01-02T07:55:29.988Z,5.75
2018-01-02T07:56:33.577Z,5.50
2018-01-02T07:57:37.944Z,5.95
2018-01-02T07:58:42.319Z,6.15
2018-01-02T07:59:45.612Z,5.95
2018-01-02T08:00:49.057Z,4.87
2018-01-02T08:01:52.343Z,5.85
2018-01-02T08:02:56.709Z,5.25
2018-01-02T08:04:00.770Z,5.30
2018-01-02T08:05:05.168Z,5.57
2018-01-02T08:06:08.433Z,5.10
2018-01-02T08:07:12.025Z,4.78
2018-01-02T08:08:15.629Z,5.37
2018-01-02T08:09:19.067Z,5.80
2018-01-02T08:10:22.705Z,6.40
2018-01-02T08:11:27.055Z,5.00
2018-01-02T08:12:31.106Z,6.18
2018-01-02T08:13:34.722Z,5.80
2018-01-02T08:14:38.317Z,5.57
2018-01-02T08:15:42.364Z,5.05
2018-01-02T08:16:45.629Z,4.90
2018-01-02T08:17:49.995Z,4.50
2018-01-02T08:18:54.348Z,4.45
2018-01-02T08:19:57.953Z,4.12
2018-01-02T08:21:01.585Z,3.83
2018-01-02T08:22:04.859Z,3.62
2018-01-02T08:23:08.449Z,3.40
2018-01-02T08:24:12.821Z,3.72
2018-01-02T08:25:17.179Z,3.90
2018-01-02T08:26:21.578Z,4.05
2018-01-02T08:27:24.862Z,3.80
2018-01-02T08:28:28.144Z,4.18
2018-01-02T08:29:32.498Z,4.25
2018-01-02T08:30:36.863Z,4.80
2018-01-02T08:31:40.474Z,4.07
2018-01-02T08:32:43.775Z,4.75
2018-01-02T08:33:48.133Z,5.15
2018-01-02T08:34:52.498Z,5.12
2018-01-02T08:35:56.114Z,6.10
2018-01-02T08:36:59.709Z,6.40
2018-01-02T08:38:04.095Z,6.53
2018-01-02T08:39:07.686Z,6.37
2018-01-02T08:40:11.301Z,6.95
2018-01-02T08:41:15.615Z,6.62
2018-01-02T08:42:19.225Z,7.30
2018-01-02T08:43:22.852Z,7.70
2018-01-02T08:44:26.481Z,8.00
2018-01-02T08:45:29.771Z,8.60
2018-01-02T08:46:33.561Z,8.88
2018-01-02T08:47:37.279Z,9.52
2018-01-02T08:48:40.218Z,9.52
2018-01-02T08:49:43.817Z,8.38
2018-01-02T08:50:47.403Z,9.13
2018-01-02T08:51:51.004Z,9.50
2018-01-02T08:52:54.617Z,9.73
2018-01-02T08:53:58.285Z,9.05
2018-01-02T08:55:01.885Z,8.02
2018-01-02T08:56:06.264Z,7.40
2018-01-02T08:57:10.350Z,6.70
2018-01-02T08:58:13.953Z,6.22
2018-01-02T08:59:17.553Z,6.85
2018-01-02T09:00:21.181Z,6.07
2018-01-02T09:01:24.449Z,6.35
2018-01-02T09:02:27.738Z,5.80
2018-01-02T09:03:31.040Z,5.32
2018-01-02T09:04:35.578Z,5.12
2018-01-02T09:05:39.976Z,5.35
2018-01-02T09:06:43.597Z,5.45
2018-01-02T09:07:47.964Z,5.30
2018-01-02T09:08:52.345Z,5.30
2018-01-02T09:09:55.945Z,5.20
2018-01-02T09:10:59.570Z,5.22
2018-01-02T09:12:02.992Z,5.53
2018-01-02T09:13:12.805Z,5.10
2018-01-02T09:14:16.416Z,5.20
2018-01-02T09:15:20.807Z,5.35
2018-01-02T09:16:24.418Z,5.00
2018-01-02T09:17:28.019Z,5.12
2018-01-02T09:18:31.605Z,5.12
2018-01-02T09:19:35.240Z,5.82
2018-01-02T09:20:38.833Z,5.18
2018-01-02T09:21:43.244Z,5.65
2018-01-02T09:22:47.014Z,5.12
2018-01-02T09:23:50.658Z,5.35
2018-01-02T09:24:53.949Z,5.37
2018-01-02T09:25:57.360Z,5.00
2018-01-02T09:27:00.976Z,5.50
2018-01-02T09:28:03.922Z,6.10
2018-01-02T09:29:07.557Z,5.80
2018-01-02T09:30:11.913Z,5.32
2018-01-02T09:31:16.283Z,5.50
2018-01-02T09:32:19.887Z,6.32
2018-01-02T09:33:23.170Z,6.05
2018-01-02T09:34:27.582Z,6.97
2018-01-02T09:35:31.198Z,6.87
2018-01-02T09:36:34.794Z,7.20
2018-01-02T09:37:38.388Z,7.07
2018-01-02T09:38:42.767Z,8.32
2018-01-02T09:39:47.132Z,7.00
2018-01-02T09:40:50.767Z,6.85
2018-01-02T09:41:55.128Z,7.10
2018-01-02T09:42:58.729Z,7.03
2018-01-02T09:44:02.367Z,7.62
2018-01-02T09:45:05.972Z,7.10
2018-01-02T09:46:09.780Z,7.00
2018-01-02T09:47:13.400Z,7.65
2018-01-02T09:48:17.765Z,7.57
2018-01-02T09:49:22.151Z,7.30
2018-01-02T09:50:25.808Z,6.97
2018-01-02T09:51:29.650Z,6.70
2018-01-02T09:52:33.503Z,7.43
2018-01-02T09:53:37.897Z,6.82
2018-01-02T09:54:41.497Z,7.05
2018-01-02T09:55:45.140Z,7.20
2018-01-02T09:56:48.756Z,6.43
2018-01-02T09:57:52.362Z,7.20
2018-01-02T09:58:56.733Z,7.15
2018-01-02T10:00:01.093Z,7.12
2018-01-02T10:01:04.721Z,6.25
2018-01-02T10:02:08.345Z,6.93
2018-01-02T10:03:12.042Z,6.30
2018-01-02T10:04:15.684Z,7.68
2018-01-02T10:05:19.306Z,7.20
2018-01-02T10:06:22.916Z,6.90
2018-01-02T10:07:27.318Z,6.12
2018-01-02T10:08:30.921Z,6.90
2018-01-02T10:09:35.299Z,6.70
2018-01-02T10:10:38.572Z,5.87
2018-01-02T10:11:42.178Z,6.68
2018-01-02T10:12:45.485Z,7.03
2018-01-02T10:13:49.068Z,6.80
2018-01-02T10:14:52.665Z,6.45
2018-01-02T10:15:56.265Z,5.82
2018-01-02T10:16:59.876Z,6.72
2018-01-02T10:18:03.589Z,6.15
2018-01-02T10:19:07.956Z,6.32
2018-01-02T10:20:12.341Z,7.03
2018-01-02T10:21:16.713Z,5.12
2018-01-02T10:22:21.076Z,6.00
2018-01-02T10:23:25.477Z,6.37
2018-01-02T10:24:28.748Z,6.30
2018-01-02T10:25:32.004Z,6.07
2018-01-02T10:26:35.265Z,6.32
2018-01-02T10:27:39.645Z,5.75
2018-01-02T10:28:44.160Z,5.82
2018-01-02T10:29:47.844Z,5.62
2018-01-02T10:30:51.590Z,6.07
2018-01-02T10:31:55.189Z,6.50
2018-01-02T10:32:58.823Z,5.93
2018-01-02T10:34:03.189Z,6.45
2018-01-02T10:35:07.554Z,6.40
2018-01-02T10:36:11.191Z,6.37
2018-01-02T10:37:14.610Z,5.85
2018-01-02T10:38:18.205Z,6.70
2018-01-02T10:39:21.809Z,5.93
2018-01-02T10:40:25.390Z,5.85
2018-01-02T10:41:29.797Z,7.10
2018-01-02T10:42:33.073Z,6.40
2018-01-02T10:43:36.684Z,6.65
2018-01-02T10:44:40.281Z,6.85
2018-01-02T10:45:43.937Z,7.35
2018-01-02T10:46:47.544Z,7.72
2018-01-02T10:47:51.183Z,7.85
2018-01-02T10:48:54.794Z,7.78
2018-01-02T10:49:58.412Z,8.77
2018-01-02T10:51:02.789Z,8.73
2018-01-02T10:52:06.094Z,8.45
2018-01-02T10:53:10.448Z,8.30
2018-01-02T10:54:14.828Z,9.27
2018-01-02T10:55:18.486Z,9.30
2018-01-02T10:56:22.077Z,9.00
2018-01-02T10:57:25.733Z,9.98
2018-01-02T10:58:29.361Z,9.00
2018-01-02T10:59:32.977Z,10.43
2018-01-02T11:00:41.985Z,9.32
2018-01-02T11:01:45.648Z,10.70
2018-01-02T11:02:49.428Z,9.93
2018-01-02T11:03:53.069Z,10.85
2018-01-02T11:04:58.213Z,10.75
2018-01-02T11:06:01.844Z,11.88
2018-01-02T11:07:05.465Z,11.52
2018-01-02T11:08:09.077Z,11.73
2018-01-02T11:09:12.744Z,13.15
2018-01-02T11:10:16.391Z,12.20
2018-01-02T11:11:19.826Z,12.45
2018-01-02T11:12:29.081Z,13.35
2018-01-02T11:13:53.528Z,13.88
2018-01-02T11:14:56.813Z,12.65
2018-01-02T11:16:00.460Z,12.32
2018-01-02T11:17:04.779Z,13.15
2018-01-02T11:18:08.399Z,13.60
2018-01-02T11:19:12.465Z,12.95
2018-01-02T11:20:16.982Z,13.32
2018-01-02T11:21:20.598Z,13.30
2018-01-02T11:22:23.532Z,12.13
2018-01-02T11:23:27.170Z,13.50
2018-01-02T11:24:31.232Z,12.82
2018-01-02T11:25:35.612Z,11.57
2018-01-02T11:26:39.251Z,11.45
2018-01-02T11:27:43.642Z,11.40
2018-01-02T11:28:47.252Z,11.65
2018-01-02T11:29:50.873Z,11.35
2018-01-02T11:30:54.173Z,12.32
2018-01-02T11:31:58.616Z,12.50
2018-01-02T11:33:02.206Z,11.02
2018-01-02T11:34:05.812Z,10.93
2018-01-02T11:35:09.408Z,12.25
2018-01-02T11:36:12.897Z,11.98
2018-01-02T11:37:16.524Z,12.80
2018-01-02T11:38:20.140Z,12.35
2018-01-02T11:39:24.522Z,12.15
2018-01-02T11:40:28.130Z,12.95
2018-01-02T11:41:31.772Z,12.77
2018-01-02T11:42:35.386Z,12.48
2018-01-02T11:43:39.018Z,12.73
2018-01-02T11:44:43.394Z,12.25
2018-01-02T11:45:46.675Z,13.27
2018-01-02T11:46:50.317Z,12.98
2018-01-02T11:47:53.924Z,12.65
2018-01-02T11:48:58.320Z,12.13
2018-01-02T11:50:01.740Z,13.18
2018-01-02T11:51:06.118Z,12.10
2018-01-02T11:52:10.520Z,13.25
2018-01-02T11:53:14.117Z,11.82
2018-01-02T11:54:18.522Z,12.05
2018-01-02T11:55:22.121Z,12.75
2018-01-02T11:56:25.802Z,11.90
2018-01-02T11:57:30.168Z,11.90
2018-01-02T11:58:34.574Z,11.43
2018-01-02T11:59:38.189Z,11.05
2018-01-02T12:00:42.396Z,12.43
2018-01-02T12:01:46.006Z,11.32
2018-01-02T12:02:50.376Z,11.00
2018-01-02T12:03:54.454Z,9.35
2018-01-02T12:04:58.044Z,9.65
2018-01-02T12:06:01.665Z,8.93
2018-01-02T12:07:05.262Z,8.75
2018-01-02T12:08:08.864Z,9.45
2018-01-02T12:09:12.493Z,8.50
2018-01-02T12:10:16.864Z,9.30
2018-01-02T12:11:20.486Z,10.32
2018-01-02T12:12:24.076Z,9.05
2018-01-02T12:13:27.728Z,8.75
2018-01-02T12:14:31.357Z,9.73
2018-01-02T12:15:35.386Z,9.85
2018-01-02T12:16:38.649Z,9.20
2018-01-02T12:17:43.010Z,9.25
2018-01-02T12:18:46.644Z,9.25
2018-01-02T12:19:50.241Z,9.68
2018-01-02T12:20:53.849Z,9.80
2018-01-02T12:21:57.530Z,9.85
2018-01-02T12:23:01.911Z,9.02
2018-01-02T12:24:05.223Z,10.27
2018-01-02T12:25:08.821Z,9.95
2018-01-02T12:26:12.424Z,9.57
2018-01-02T12:27:17.449Z,10.70
2018-01-02T12:28:21.106Z,10.55
2018-01-02T12:29:24.732Z,10.48
2018-01-02T12:30:29.093Z,10.60
2018-01-02T12:31:33.478Z,10.88
2018-01-02T12:32:37.142Z,10.68
2018-01-02T12:33:40.746Z,11.55
2018-01-02T12:34:44.377Z,11.05
2018-01-02T12:35:47.655Z,11.52
2018-01-02T12:36:52.065Z,11.45
2018-01-02T12:37:55.683Z,11.85
2018-01-02T12:39:00.049Z,11.55
2018-01-02T12:40:03.789Z,12.02
2018-01-02T12:41:08.202Z,10.85
2018-01-02T12:42:11.813Z,11.80
2018-01-02T12:43:16.188Z,10.80
2018-01-02T12:44:20.565Z,11.38
2018-01-02T12:45:24.221Z,11.40
2018-01-02T12:46:28.025Z,11.48
2018-01-02T12:47:31.652Z,11.80
2018-01-02T12:48:35.252Z,11.60
2018-01-02T12:49:39.637Z,12.15
2018-01-02T12:50:44.006Z,11.80
2018-01-02T12:51:54.420Z,11.25
2018-01-02T12:52:58.813Z,12.43
2018-01-02T12:54:02.426Z,10.82
2018-01-02T12:55:06.810Z,11.85
2018-01-02T12:56:10.530Z,11.18
2018-01-02T12:57:13.818Z,12.32
2018-01-02T12:58:17.515Z,11.82
2018-01-02T12:59:22.620Z,11.20
2018-01-02T13:00:26.353Z,10.77
2018-01-02T13:01:29.956Z,11.85
2018-01-02T13:02:33.560Z,12.80
2018-01-02T13:03:37.260Z,11.80
2018-01-02T13:04:40.877Z,10.40
2018-01-02T13:05:44.485Z,12.82
2018-01-02T13:06:48.153Z,11.23
2018-01-02T13:07:51.769Z,11.40
2018-01-02T13:08:55.403Z,12.15
2018-01-02T13:09:59.029Z,10.82
2018-01-02T13:11:02.629Z,11.43
2018-01-02T13:12:06.228Z,10.40
2018-01-02T13:13:10.609Z,10.18
2018-01-02T13:14:14.993Z,10.73
2018-01-02T13:15:18.678Z,11.02
2018-01-02T13:16:22.289Z,11.10
2018-01-02T13:17:26.822Z,9.73
2018-01-02T13:18:30.464Z,9.77
2018-01-02T13:19:34.066Z,9.65
2018-01-02T13:20:38.465Z,8.98
2018-01-02T13:21:42.073Z,8.85
2018-01-02T13:22:45.886Z,10.68
2018-01-02T13:23:49.502Z,9.52
2018-01-02T13:24:53.093Z,9.40
2018-01-02T13:25:56.725Z,9.45
2018-01-02T13:27:00.333Z,8.95
2018-01-02T13:28:04.706Z,9.45
2018-01-02T13:29:09.089Z,8.52
2018-01-02T13:30:12.702Z,9.68
2018-01-02T13:31:16.338Z,10.02
2018-01-02T13:32:19.946Z,8.73
2018-01-02T13:33:23.213Z,9.48
2018-01-02T13:34:26.832Z,8.60
2018-01-02T13:35:31.207Z,8.60
2018-01-02T13:36:34.800Z,8.75
2018-01-02T13:37:38.393Z,8.65
2018-01-02T13:38:42.757Z,7.50
2018-01-02T13:39:47.162Z,7.00
2018-01-02T13:40:50.474Z,7.90
2018-01-02T13:41:54.845Z,7.90
2018-01-02T13:42:59.209Z,7.90
2018-01-02T13:44:03.592Z,7.68
2018-01-02T13:45:07.208Z,7.30
2018-01-02T13:46:10.486Z,8.30
2018-01-02T13:47:14.082Z,7.65
2018-01-02T13:48:17.345Z,8.40
2018-01-02T13:49:20.936Z,7.60
2018-01-02T13:50:24.549Z,8.25
2018-01-02T13:51:28.922Z,7.53
2018-01-02T13:52:33.304Z,8.55
2018-01-02T13:53:36.899Z,7.68
2018-01-02T13:54:40.505Z,7.62
2018-01-02T13:55:44.904Z,7.87
2018-01-02T13:56:48.187Z,8.25
2018-01-02T13:57:51.784Z,8.10
2018-01-02T13:58:55.395Z,8.00
2018-01-02T13:59:58.993Z,7.75
2018-01-02T14:01:02.609Z,7.15
2018-01-02T14:02:06.640Z,7.00